Harrison, Wisconsin
Current Conditions -  °F | °C
As of 11:35 AM on Thursday 23 Oct 2014 (Local Time) from KRRL Reporting Station
Moderate Rain Moderate Rain  
Wind Chill: 43°   Ceiling: 1600
Heat Index: 43°   Visibility: 2mi
Dew Point: 42°   Wind: 3mph
Humidity: 99%   Direction: 200°SSW
Pressure: 30.07"   Gusts: NA
Location:  45.3595°N, 89.45°W
Report Text: KRRL 231635Z AUTO 20003KT 2SM RA SCT005 SCT010 OVC016 06/06 A3007 RMK AO2 P0006 T00590057
Loading
Personal Weather Stations






























Interactive Weather Map
Tropical Storm Tracking
New forecast layout! Learn more

10-Day Weather Forecast

Advertisements
Track Severe Weather on mobile